sensor_id;sensor_type;location;lat;lon;timestamp;P1;durP1;ratioP1;P2;durP2;ratioP2
15899;SDS011;8048;50.644;6.184;2022-08-01T00:01:37;1.50;;;1.40;;
15899;SDS011;8048;50.644;6.184;2022-08-01T00:04:03;1.63;;;1.63;;
15899;SDS011;8048;50.644;6.184;2022-08-01T00:06:29;1.77;;;1.67;;
15899;SDS011;8048;50.644;6.184;2022-08-01T00:08:54;1.97;;;1.70;;
15899;SDS011;8048;50.644;6.184;2022-08-01T00:11:20;2.10;;;2.00;;
15899;SDS011;8048;50.644;6.184;2022-08-01T00:13:46;1.60;;;1.50;;
15899;SDS011;8048;50.644;6.184;2022-08-01T00:16:12;1.83;;;1.73;;
15899;SDS011;8048;50.644;6.184;2022-08-01T00:18:37;1.70;;;1.60;;
15899;SDS011;8048;50.644;6.184;2022-08-01T00:21:03;2.00;;;1.87;;
15899;SDS011;8048;50.644;6.184;2022-08-01T00:23:29;2.00;;;1.67;;
15899;SDS011;8048;50.644;6.184;2022-08-01T00:25:55;1.80;;;1.70;;
15899;SDS011;8048;50.644;6.184;2022-08-01T00:28:21;1.67;;;1.57;;
15899;SDS011;8048;50.644;6.184;2022-08-01T00:30:47;1.93;;;1.83;;
15899;SDS011;8048;50.644;6.184;2022-08-01T00:33:12;2.63;;;1.70;;
15899;SDS011;8048;50.644;6.184;2022-08-01T00:35:38;2.20;;;1.67;;
15899;SDS011;8048;50.644;6.184;2022-08-01T00:38:03;2.30;;;2.20;;
15899;SDS011;8048;50.644;6.184;2022-08-01T00:40:29;1.90;;;1.80;;
15899;SDS011;8048;50.644;6.184;2022-08-01T00:42:54;2.00;;;1.90;;
15899;SDS011;8048;50.644;6.184;2022-08-01T00:45:20;1.60;;;1.50;;
15899;SDS011;8048;50.644;6.184;2022-08-01T00:47:45;2.43;;;2.13;;
15899;SDS011;8048;50.644;6.184;2022-08-01T00:50:11;1.93;;;1.83;;
15899;SDS011;8048;50.644;6.184;2022-08-01T00:52:37;3.13;;;2.93;;
15899;SDS011;8048;50.644;6.184;2022-08-01T00:55:05;2.00;;;1.90;;
15899;SDS011;8048;50.644;6.184;2022-08-01T00:57:31;1.57;;;1.50;;
15899;SDS011;8048;50.644;6.184;2022-08-01T00:59:57;1.60;;;1.50;;
15899;SDS011;8048;50.644;6.184;2022-08-01T01:02:23;2.10;;;2.00;;
15899;SDS011;8048;50.644;6.184;2022-08-01T01:04:48;2.10;;;2.00;;
15899;SDS011;8048;50.644;6.184;2022-08-01T01:09:56;3.30;;;2.30;;
15899;SDS011;8048;50.644;6.184;2022-08-01T01:12:29;2.30;;;2.20;;
15899;SDS011;8048;50.644;6.184;2022-08-01T01:15:44;2.20;;;2.10;;
15899;SDS011;8048;50.644;6.184;2022-08-01T01:18:11;2.23;;;2.13;;
15899;SDS011;8048;50.644;6.184;2022-08-01T01:20:57;2.27;;;2.10;;
15899;SDS011;8048;50.644;6.184;2022-08-01T01:29:08;2.30;;;2.20;;
15899;SDS011;8048;50.644;6.184;2022-08-01T01:31:50;2.40;;;2.30;;
15899;SDS011;8048;50.644;6.184;2022-08-01T01:34:20;1.87;;;1.77;;
15899;SDS011;8048;50.644;6.184;2022-08-01T01:36:48;1.80;;;1.70;;
15899;SDS011;8048;50.644;6.184;2022-08-01T01:39:14;2.10;;;2.00;;
15899;SDS011;8048;50.644;6.184;2022-08-01T01:41:42;1.90;;;1.80;;
15899;SDS011;8048;50.644;6.184;2022-08-01T01:44:10;3.70;;;2.60;;
15899;SDS011;8048;50.644;6.184;2022-08-01T01:46:36;3.03;;;2.20;;
15899;SDS011;8048;50.644;6.184;2022-08-01T01:49:02;2.43;;;2.33;;
15899;SDS011;8048;50.644;6.184;2022-08-01T01:51:29;2.70;;;2.50;;
15899;SDS011;8048;50.644;6.184;2022-08-01T01:53:56;2.47;;;2.27;;
15899;SDS011;8048;50.644;6.184;2022-08-01T01:56:24;2.50;;;2.30;;
15899;SDS011;8048;50.644;6.184;2022-08-01T01:58:53;2.40;;;2.30;;
15899;SDS011;8048;50.644;6.184;2022-08-01T02:01:21;2.10;;;2.00;;
15899;SDS011;8048;50.644;6.184;2022-08-01T02:03:49;2.30;;;2.20;;
15899;SDS011;8048;50.644;6.184;2022-08-01T02:06:18;2.10;;;2.00;;
15899;SDS011;8048;50.644;6.184;2022-08-01T02:08:45;2.10;;;2.00;;
15899;SDS011;8048;50.644;6.184;2022-08-01T02:11:12;2.40;;;2.13;;
15899;SDS011;8048;50.644;6.184;2022-08-01T02:13:45;2.40;;;2.30;;
15899;SDS011;8048;50.644;6.184;2022-08-01T02:16:33;2.40;;;2.20;;
15899;SDS011;8048;50.644;6.184;2022-08-01T02:19:00;2.60;;;2.40;;
15899;SDS011;8048;50.644;6.184;2022-08-01T02:21:30;2.03;;;1.93;;
15899;SDS011;8048;50.644;6.184;2022-08-01T02:24:09;1.70;;;1.60;;
15899;SDS011;8048;50.644;6.184;2022-08-01T02:26:49;2.10;;;2.00;;
15899;SDS011;8048;50.644;6.184;2022-08-01T02:29:20;2.67;;;2.47;;
15899;SDS011;8048;50.644;6.184;2022-08-01T02:31:49;2.93;;;2.17;;
15899;SDS011;8048;50.644;6.184;2022-08-01T02:34:19;2.37;;;2.27;;
15899;SDS011;8048;50.644;6.184;2022-08-01T02:36:47;2.83;;;2.63;;
15899;SDS011;8048;50.644;6.184;2022-08-01T02:39:14;2.63;;;2.43;;
15899;SDS011;8048;50.644;6.184;2022-08-01T02:41:45;2.30;;;2.10;;
15899;SDS011;8048;50.644;6.184;2022-08-01T02:44:16;2.70;;;2.50;;
15899;SDS011;8048;50.644;6.184;2022-08-01T02:46:54;2.23;;;2.13;;
15899;SDS011;8048;50.644;6.184;2022-08-01T02:49:24;3.50;;;3.30;;
15899;SDS011;8048;50.644;6.184;2022-08-01T02:51:52;1.67;;;1.67;;
15899;SDS011;8048;50.644;6.184;2022-08-01T02:54:19;2.33;;;2.17;;
15899;SDS011;8048;50.644;6.184;2022-08-01T02:56:47;2.37;;;2.27;;
15899;SDS011;8048;50.644;6.184;2022-08-01T02:59:13;2.40;;;2.30;;
15899;SDS011;8048;50.644;6.184;2022-08-01T03:01:43;2.30;;;2.17;;
15899;SDS011;8048;50.644;6.184;2022-08-01T03:04:10;3.00;;;2.80;;
15899;SDS011;8048;50.644;6.184;2022-08-01T03:06:37;2.30;;;2.20;;
15899;SDS011;8048;50.644;6.184;2022-08-01T03:09:04;2.30;;;2.20;;
15899;SDS011;8048;50.644;6.184;2022-08-01T03:11:31;2.40;;;2.20;;
15899;SDS011;8048;50.644;6.184;2022-08-01T03:14:00;2.27;;;2.17;;
15899;SDS011;8048;50.644;6.184;2022-08-01T03:16:30;1.43;;;1.43;;
15899;SDS011;8048;50.644;6.184;2022-08-01T03:18:58;2.50;;;2.30;;
15899;SDS011;8048;50.644;6.184;2022-08-01T03:21:25;2.10;;;1.90;;
15899;SDS011;8048;50.644;6.184;2022-08-01T03:23:52;2.30;;;2.20;;
15899;SDS011;8048;50.644;6.184;2022-08-01T03:26:29;3.30;;;3.10;;
15899;SDS011;8048;50.644;6.184;2022-08-01T03:28:58;2.90;;;2.70;;
15899;SDS011;8048;50.644;6.184;2022-08-01T03:31:27;3.10;;;2.90;;
15899;SDS011;8048;50.644;6.184;2022-08-01T03:33:53;2.37;;;2.27;;
15899;SDS011;8048;50.644;6.184;2022-08-01T03:36:21;2.90;;;2.70;;
15899;SDS011;8048;50.644;6.184;2022-08-01T03:38:50;2.80;;;2.60;;
15899;SDS011;8048;50.644;6.184;2022-08-01T03:41:21;5.17;;;3.13;;
15899;SDS011;8048;50.644;6.184;2022-08-01T03:43:54;2.40;;;2.30;;
15899;SDS011;8048;50.644;6.184;2022-08-01T03:46:24;2.97;;;2.80;;
15899;SDS011;8048;50.644;6.184;2022-08-01T03:48:54;3.67;;;3.37;;
15899;SDS011;8048;50.644;6.184;2022-08-01T03:51:23;3.27;;;3.07;;
15899;SDS011;8048;50.644;6.184;2022-08-01T03:53:49;2.70;;;2.60;;
15899;SDS011;8048;50.644;6.184;2022-08-01T03:56:18;3.40;;;3.20;;
15899;SDS011;8048;50.644;6.184;2022-08-01T03:58:46;3.50;;;2.63;;
15899;SDS011;8048;50.644;6.184;2022-08-01T04:01:12;3.57;;;3.20;;
15899;SDS011;8048;50.644;6.184;2022-08-01T04:03:38;2.53;;;2.43;;
15899;SDS011;8048;50.644;6.184;2022-08-01T04:06:06;3.53;;;2.53;;
15899;SDS011;8048;50.644;6.184;2022-08-01T04:08:39;3.70;;;3.40;;
15899;SDS011;8048;50.644;6.184;2022-08-01T04:11:07;2.77;;;2.57;;
15899;SDS011;8048;50.644;6.184;2022-08-01T04:13:33;3.10;;;2.90;;
15899;SDS011;8048;50.644;6.184;2022-08-01T04:15:59;3.93;;;3.63;;
15899;SDS011;8048;50.644;6.184;2022-08-01T04:18:25;3.07;;;2.87;;
15899;SDS011;8048;50.644;6.184;2022-08-01T04:20:51;2.77;;;2.67;;
15899;SDS011;8048;50.644;6.184;2022-08-01T04:23:17;3.43;;;3.13;;
15899;SDS011;8048;50.644;6.184;2022-08-01T04:25:47;3.47;;;3.30;;
15899;SDS011;8048;50.644;6.184;2022-08-01T04:28:15;5.00;;;3.00;;
15899;SDS011;8048;50.644;6.184;2022-08-01T04:30:42;4.23;;;3.87;;
15899;SDS011;8048;50.644;6.184;2022-08-01T04:33:11;3.40;;;3.20;;
15899;SDS011;8048;50.644;6.184;2022-08-01T04:35:41;2.67;;;2.50;;
15899;SDS011;8048;50.644;6.184;2022-08-01T04:38:10;3.90;;;3.47;;
15899;SDS011;8048;50.644;6.184;2022-08-01T04:40:38;3.53;;;3.10;;
15899;SDS011;8048;50.644;6.184;2022-08-01T04:43:08;3.90;;;3.67;;
15899;SDS011;8048;50.644;6.184;2022-08-01T04:45:35;3.77;;;2.93;;
15899;SDS011;8048;50.644;6.184;2022-08-01T04:48:01;3.83;;;2.93;;
15899;SDS011;8048;50.644;6.184;2022-08-01T04:50:31;3.00;;;2.80;;
15899;SDS011;8048;50.644;6.184;2022-08-01T04:52:57;4.33;;;3.93;;
15899;SDS011;8048;50.644;6.184;2022-08-01T04:55:23;5.57;;;3.27;;
15899;SDS011;8048;50.644;6.184;2022-08-01T04:57:48;3.90;;;3.60;;
15899;SDS011;8048;50.644;6.184;2022-08-01T05:00:14;3.60;;;3.37;;
15899;SDS011;8048;50.644;6.184;2022-08-01T05:02:43;3.67;;;3.37;;
15899;SDS011;8048;50.644;6.184;2022-08-01T05:05:08;3.43;;;3.23;;
15899;SDS011;8048;50.644;6.184;2022-08-01T05:07:35;4.47;;;4.07;;
15899;SDS011;8048;50.644;6.184;2022-08-01T05:10:02;3.97;;;3.67;;
15899;SDS011;8048;50.644;6.184;2022-08-01T05:12:30;4.17;;;3.87;;
15899;SDS011;8048;50.644;6.184;2022-08-01T05:14:57;4.30;;;3.90;;
15899;SDS011;8048;50.644;6.184;2022-08-01T05:17:23;3.87;;;3.50;;
15899;SDS011;8048;50.644;6.184;2022-08-01T05:19:48;3.60;;;3.40;;
15899;SDS011;8048;50.644;6.184;2022-08-01T05:22:14;3.70;;;3.50;;
15899;SDS011;8048;50.644;6.184;2022-08-01T05:24:39;4.17;;;3.77;;
15899;SDS011;8048;50.644;6.184;2022-08-01T05:27:05;4.07;;;3.67;;
15899;SDS011;8048;50.644;6.184;2022-08-01T05:29:32;4.73;;;4.23;;
15899;SDS011;8048;50.644;6.184;2022-08-01T05:31:58;4.47;;;4.17;;
15899;SDS011;8048;50.644;6.184;2022-08-01T05:34:24;4.93;;;4.63;;
15899;SDS011;8048;50.644;6.184;2022-08-01T05:36:50;3.80;;;3.50;;
15899;SDS011;8048;50.644;6.184;2022-08-01T05:39:16;5.20;;;4.80;;
15899;SDS011;8048;50.644;6.184;2022-08-01T05:41:41;4.53;;;4.23;;
15899;SDS011;8048;50.644;6.184;2022-08-01T05:44:07;10.73;;;4.83;;
15899;SDS011;8048;50.644;6.184;2022-08-01T05:46:32;4.20;;;3.90;;
15899;SDS011;8048;50.644;6.184;2022-08-01T05:48:59;5.63;;;5.20;;
15899;SDS011;8048;50.644;6.184;2022-08-01T05:51:25;6.77;;;5.80;;
15899;SDS011;8048;50.644;6.184;2022-08-01T05:53:51;5.93;;;5.33;;
15899;SDS011;8048;50.644;6.184;2022-08-01T05:56:17;5.10;;;4.67;;
15899;SDS011;8048;50.644;6.184;2022-08-01T05:58:43;5.67;;;5.13;;
15899;SDS011;8048;50.644;6.184;2022-08-01T06:01:08;6.80;;;6.23;;
15899;SDS011;8048;50.644;6.184;2022-08-01T06:03:34;7.07;;;6.37;;
15899;SDS011;8048;50.644;6.184;2022-08-01T06:06:00;6.53;;;5.93;;
15899;SDS011;8048;50.644;6.184;2022-08-01T06:08:26;7.43;;;5.80;;
15899;SDS011;8048;50.644;6.184;2022-08-01T06:10:51;6.77;;;5.30;;
15899;SDS011;8048;50.644;6.184;2022-08-01T06:13:17;8.70;;;6.47;;
15899;SDS011;8048;50.644;6.184;2022-08-01T06:15:44;8.23;;;6.40;;
15899;SDS011;8048;50.644;6.184;2022-08-01T06:18:10;5.80;;;5.27;;
15899;SDS011;8048;50.644;6.184;2022-08-01T06:20:36;8.37;;;7.57;;
15899;SDS011;8048;50.644;6.184;2022-08-01T06:23:01;7.60;;;6.23;;
15899;SDS011;8048;50.644;6.184;2022-08-01T06:25:27;6.40;;;5.80;;
15899;SDS011;8048;50.644;6.184;2022-08-01T06:27:52;6.67;;;6.10;;
15899;SDS011;8048;50.644;6.184;2022-08-01T06:30:18;6.50;;;5.80;;
15899;SDS011;8048;50.644;6.184;2022-08-01T06:32:43;7.50;;;6.80;;
15899;SDS011;8048;50.644;6.184;2022-08-01T06:35:09;7.07;;;5.70;;
15899;SDS011;8048;50.644;6.184;2022-08-01T06:37:35;8.07;;;7.27;;
15899;SDS011;8048;50.644;6.184;2022-08-01T06:40:04;7.37;;;6.70;;
15899;SDS011;8048;50.644;6.184;2022-08-01T06:42:31;6.10;;;5.43;;
15899;SDS011;8048;50.644;6.184;2022-08-01T06:45:09;5.83;;;4.97;;
15899;SDS011;8048;50.644;6.184;2022-08-01T06:47:36;6.60;;;5.27;;
15899;SDS011;8048;50.644;6.184;2022-08-01T06:50:03;7.07;;;6.40;;
15899;SDS011;8048;50.644;6.184;2022-08-01T06:52:29;6.50;;;5.90;;
15899;SDS011;8048;50.644;6.184;2022-08-01T06:54:55;5.47;;;5.00;;
15899;SDS011;8048;50.644;6.184;2022-08-01T06:57:21;4.60;;;4.27;;
15899;SDS011;8048;50.644;6.184;2022-08-01T06:59:46;4.73;;;4.33;;
15899;SDS011;8048;50.644;6.184;2022-08-01T07:02:12;6.47;;;5.87;;
15899;SDS011;8048;50.644;6.184;2022-08-01T07:04:37;9.90;;;6.87;;
15899;SDS011;8048;50.644;6.184;2022-08-01T07:07:03;10.20;;;7.03;;
15899;SDS011;8048;50.644;6.184;2022-08-01T07:09:29;10.40;;;7.73;;
15899;SDS011;8048;50.644;6.184;2022-08-01T07:11:55;7.17;;;6.47;;
15899;SDS011;8048;50.644;6.184;2022-08-01T07:14:22;6.73;;;6.03;;
15899;SDS011;8048;50.644;6.184;2022-08-01T07:16:48;8.80;;;6.33;;
15899;SDS011;8048;50.644;6.184;2022-08-01T07:19:14;6.67;;;6.00;;
15899;SDS011;8048;50.644;6.184;2022-08-01T07:21:40;6.23;;;5.70;;
15899;SDS011;8048;50.644;6.184;2022-08-01T07:24:06;6.17;;;5.67;;
15899;SDS011;8048;50.644;6.184;2022-08-01T07:26:33;10.40;;;8.13;;
15899;SDS011;8048;50.644;6.184;2022-08-01T07:28:58;6.93;;;6.07;;
15899;SDS011;8048;50.644;6.184;2022-08-01T07:31:24;7.37;;;6.67;;
15899;SDS011;8048;50.644;6.184;2022-08-01T07:33:49;6.93;;;5.50;;
15899;SDS011;8048;50.644;6.184;2022-08-01T07:36:16;6.40;;;5.80;;
15899;SDS011;8048;50.644;6.184;2022-08-01T07:38:42;4.23;;;3.93;;
15899;SDS011;8048;50.644;6.184;2022-08-01T07:41:07;6.17;;;5.40;;
15899;SDS011;8048;50.644;6.184;2022-08-01T07:43:33;5.70;;;5.13;;
15899;SDS011;8048;50.644;6.184;2022-08-01T07:46:00;7.60;;;5.70;;
15899;SDS011;8048;50.644;6.184;2022-08-01T07:48:29;6.97;;;6.37;;
15899;SDS011;8048;50.644;6.184;2022-08-01T07:50:55;6.00;;;5.50;;
15899;SDS011;8048;50.644;6.184;2022-08-01T07:53:21;5.40;;;4.90;;
15899;SDS011;8048;50.644;6.184;2022-08-01T07:55:47;4.77;;;4.30;;
15899;SDS011;8048;50.644;6.184;2022-08-01T07:58:13;5.03;;;4.53;;
15899;SDS011;8048;50.644;6.184;2022-08-01T08:00:39;6.93;;;6.30;;
15899;SDS011;8048;50.644;6.184;2022-08-01T08:03:04;9.60;;;6.37;;
15899;SDS011;8048;50.644;6.184;2022-08-01T08:05:30;7.80;;;7.03;;
15899;SDS011;8048;50.644;6.184;2022-08-01T08:07:57;6.93;;;5.60;;
15899;SDS011;8048;50.644;6.184;2022-08-01T08:10:23;7.13;;;5.90;;
15899;SDS011;8048;50.644;6.184;2022-08-01T08:12:48;5.50;;;5.00;;
15899;SDS011;8048;50.644;6.184;2022-08-01T08:15:14;5.40;;;4.87;;
15899;SDS011;8048;50.644;6.184;2022-08-01T08:17:40;6.23;;;5.73;;
15899;SDS011;8048;50.644;6.184;2022-08-01T08:20:06;3.77;;;3.47;;
15899;SDS011;8048;50.644;6.184;2022-08-01T08:22:32;6.83;;;4.83;;
15899;SDS011;8048;50.644;6.184;2022-08-01T08:24:58;5.63;;;5.13;;
15899;SDS011;8048;50.644;6.184;2022-08-01T08:27:24;6.60;;;6.00;;
15899;SDS011;8048;50.644;6.184;2022-08-01T08:29:50;7.70;;;6.17;;
15899;SDS011;8048;50.644;6.184;2022-08-01T08:32:15;6.70;;;6.17;;
15899;SDS011;8048;50.644;6.184;2022-08-01T08:34:41;6.83;;;5.77;;
15899;SDS011;8048;50.644;6.184;2022-08-01T08:37:07;6.80;;;6.20;;
15899;SDS011;8048;50.644;6.184;2022-08-01T08:39:33;7.27;;;6.53;;
15899;SDS011;8048;50.644;6.184;2022-08-01T08:41:59;6.97;;;6.33;;
15899;SDS011;8048;50.644;6.184;2022-08-01T08:44:24;6.20;;;5.60;;
15899;SDS011;8048;50.644;6.184;2022-08-01T08:46:51;6.53;;;5.90;;
15899;SDS011;8048;50.644;6.184;2022-08-01T08:49:19;5.97;;;5.27;;
15899;SDS011;8048;50.644;6.184;2022-08-01T08:51:47;5.23;;;4.13;;
15899;SDS011;8048;50.644;6.184;2022-08-01T08:54:15;5.27;;;4.63;;
15899;SDS011;8048;50.644;6.184;2022-08-01T08:56:42;6.63;;;6.00;;
15899;SDS011;8048;50.644;6.184;2022-08-01T08:59:10;6.67;;;6.03;;
15899;SDS011;8048;50.644;6.184;2022-08-01T09:01:38;4.17;;;3.87;;
15899;SDS011;8048;50.644;6.184;2022-08-01T09:04:03;4.73;;;4.43;;
15899;SDS011;8048;50.644;6.184;2022-08-01T09:06:30;6.70;;;5.27;;
15899;SDS011;8048;50.644;6.184;2022-08-01T09:08:56;4.50;;;4.10;;
15899;SDS011;8048;50.644;6.184;2022-08-01T09:11:23;6.57;;;4.47;;
15899;SDS011;8048;50.644;6.184;2022-08-01T09:14:05;5.00;;;4.60;;
15899;SDS011;8048;50.644;6.184;2022-08-01T09:16:36;3.47;;;3.20;;
15899;SDS011;8048;50.644;6.184;2022-08-01T09:19:12;3.20;;;3.00;;
15899;SDS011;8048;50.644;6.184;2022-08-01T09:21:59;2.80;;;2.60;;
15899;SDS011;8048;50.644;6.184;2022-08-01T09:24:26;4.07;;;3.87;;
15899;SDS011;8048;50.644;6.184;2022-08-01T09:26:53;4.33;;;3.93;;
15899;SDS011;8048;50.644;6.184;2022-08-01T09:29:21;3.90;;;3.60;;
15899;SDS011;8048;50.644;6.184;2022-08-01T09:31:48;5.03;;;4.53;;
15899;SDS011;8048;50.644;6.184;2022-08-01T09:34:14;4.73;;;4.33;;
15899;SDS011;8048;50.644;6.184;2022-08-01T09:36:51;5.30;;;4.87;;
15899;SDS011;8048;50.644;6.184;2022-08-01T09:39:21;5.03;;;4.10;;
15899;SDS011;8048;50.644;6.184;2022-08-01T09:41:49;5.23;;;4.83;;
15899;SDS011;8048;50.644;6.184;2022-08-01T09:44:15;7.03;;;6.37;;
15899;SDS011;8048;50.644;6.184;2022-08-01T09:46:53;4.63;;;4.20;;
15899;SDS011;8048;50.644;6.184;2022-08-01T09:49:30;5.70;;;3.63;;
15899;SDS011;8048;50.644;6.184;2022-08-01T09:52:13;4.10;;;3.80;;
15899;SDS011;8048;50.644;6.184;2022-08-01T09:54:41;4.73;;;4.23;;
15899;SDS011;8048;50.644;6.184;2022-08-01T09:57:14;5.23;;;4.80;;
15899;SDS011;8048;50.644;6.184;2022-08-01T09:59:43;4.97;;;4.40;;
15899;SDS011;8048;50.644;6.184;2022-08-01T10:02:11;5.33;;;4.77;;
15899;SDS011;8048;50.644;6.184;2022-08-01T10:04:49;5.20;;;4.80;;
15899;SDS011;8048;50.644;6.184;2022-08-01T10:07:16;6.37;;;5.60;;
15899;SDS011;8048;50.644;6.184;2022-08-01T10:09:43;6.43;;;5.70;;
15899;SDS011;8048;50.644;6.184;2022-08-01T10:12:10;6.63;;;5.77;;
15899;SDS011;8048;50.644;6.184;2022-08-01T10:14:46;6.17;;;5.57;;
15899;SDS011;8048;50.644;6.184;2022-08-01T10:17:20;6.93;;;5.90;;
15899;SDS011;8048;50.644;6.184;2022-08-01T10:19:49;6.07;;;5.53;;
15899;SDS011;8048;50.644;6.184;2022-08-01T10:22:15;6.77;;;6.17;;
15899;SDS011;8048;50.644;6.184;2022-08-01T10:24:43;5.73;;;5.33;;
15899;SDS011;8048;50.644;6.184;2022-08-01T10:27:11;5.77;;;5.27;;
15899;SDS011;8048;50.644;6.184;2022-08-01T10:32:10;4.50;;;4.10;;
15899;SDS011;8048;50.644;6.184;2022-08-01T10:34:36;5.23;;;4.73;;
15899;SDS011;8048;50.644;6.184;2022-08-01T10:37:03;5.70;;;5.07;;
15899;SDS011;8048;50.644;6.184;2022-08-01T10:39:30;7.80;;;5.60;;
15899;SDS011;8048;50.644;6.184;2022-08-01T10:41:57;5.27;;;4.87;;
15899;SDS011;8048;50.644;6.184;2022-08-01T10:44:24;4.83;;;4.53;;
15899;SDS011;8048;50.644;6.184;2022-08-01T10:46:52;5.50;;;5.07;;
15899;SDS011;8048;50.644;6.184;2022-08-01T10:49:23;4.10;;;3.80;;
15899;SDS011;8048;50.644;6.184;2022-08-01T10:51:53;4.53;;;4.23;;
15899;SDS011;8048;50.644;6.184;2022-08-01T10:54:20;4.60;;;4.20;;
15899;SDS011;8048;50.644;6.184;2022-08-01T10:56:50;4.53;;;4.13;;
15899;SDS011;8048;50.644;6.184;2022-08-01T10:59:22;3.60;;;3.30;;
15899;SDS011;8048;50.644;6.184;2022-08-01T11:01:56;5.70;;;3.53;;
15899;SDS011;8048;50.644;6.184;2022-08-01T11:04:32;3.47;;;3.27;;
15899;SDS011;8048;50.644;6.184;2022-08-01T11:07:07;4.13;;;3.73;;
15899;SDS011;8048;50.644;6.184;2022-08-01T11:09:46;5.47;;;4.30;;
15899;SDS011;8048;50.644;6.184;2022-08-01T11:12:14;4.47;;;3.90;;
15899;SDS011;8048;50.644;6.184;2022-08-01T11:15:16;4.43;;;3.90;;
15899;SDS011;8048;50.644;6.184;2022-08-01T11:20:06;4.73;;;4.30;;
15899;SDS011;8048;50.644;6.184;2022-08-01T11:25:23;7.90;;;5.63;;
15899;SDS011;8048;50.644;6.184;2022-08-01T11:27:49;7.67;;;6.00;;
15899;SDS011;8048;50.644;6.184;2022-08-01T11:34:07;7.87;;;5.97;;
15899;SDS011;8048;50.644;6.184;2022-08-01T11:46:44;7.07;;;6.47;;
15899;SDS011;8048;50.644;6.184;2022-08-01T11:49:25;7.03;;;6.40;;
15899;SDS011;8048;50.644;6.184;2022-08-01T11:52:15;7.03;;;5.97;;
15899;SDS011;8048;50.644;6.184;2022-08-01T11:54:43;6.40;;;5.83;;
15899;SDS011;8048;50.644;6.184;2022-08-01T11:57:21;6.30;;;5.70;;
15899;SDS011;8048;50.644;6.184;2022-08-01T11:59:53;6.00;;;5.50;;
15899;SDS011;8048;50.644;6.184;2022-08-01T12:02:22;7.70;;;6.90;;
15899;SDS011;8048;50.644;6.184;2022-08-01T12:04:50;7.77;;;7.17;;
15899;SDS011;8048;50.644;6.184;2022-08-01T12:07:24;6.90;;;6.30;;
15899;SDS011;8048;50.644;6.184;2022-08-01T12:10:04;6.10;;;5.60;;
15899;SDS011;8048;50.644;6.184;2022-08-01T12:12:32;7.00;;;6.40;;
15899;SDS011;8048;50.644;6.184;2022-08-01T12:15:03;7.63;;;5.93;;
15899;SDS011;8048;50.644;6.184;2022-08-01T12:17:31;7.03;;;6.20;;
15899;SDS011;8048;50.644;6.184;2022-08-01T12:19:59;7.23;;;6.63;;
15899;SDS011;8048;50.644;6.184;2022-08-01T12:22:25;6.93;;;6.33;;
15899;SDS011;8048;50.644;6.184;2022-08-01T12:24:51;6.20;;;5.73;;
15899;SDS011;8048;50.644;6.184;2022-08-01T12:27:24;6.97;;;6.30;;
15899;SDS011;8048;50.644;6.184;2022-08-01T12:29:54;7.27;;;6.63;;
15899;SDS011;8048;50.644;6.184;2022-08-01T12:32:22;7.57;;;6.87;;
15899;SDS011;8048;50.644;6.184;2022-08-01T12:34:49;6.73;;;6.17;;
15899;SDS011;8048;50.644;6.184;2022-08-01T12:37:16;6.37;;;5.87;;
15899;SDS011;8048;50.644;6.184;2022-08-01T12:39:42;7.17;;;6.47;;
15899;SDS011;8048;50.644;6.184;2022-08-01T12:42:09;5.37;;;4.97;;
15899;SDS011;8048;50.644;6.184;2022-08-01T12:44:36;7.93;;;7.13;;
15899;SDS011;8048;50.644;6.184;2022-08-01T12:47:03;6.13;;;5.60;;
15899;SDS011;8048;50.644;6.184;2022-08-01T12:49:33;5.87;;;5.37;;
15899;SDS011;8048;50.644;6.184;2022-08-01T12:52:02;5.87;;;5.37;;
15899;SDS011;8048;50.644;6.184;2022-08-01T12:54:28;5.53;;;5.03;;
15899;SDS011;8048;50.644;6.184;2022-08-01T12:56:54;6.40;;;5.80;;
15899;SDS011;8048;50.644;6.184;2022-08-01T13:01:54;6.53;;;5.90;;
15899;SDS011;8048;50.644;6.184;2022-08-01T13:04:20;6.50;;;5.63;;
15899;SDS011;8048;50.644;6.184;2022-08-01T13:06:48;6.70;;;5.80;;
15899;SDS011;8048;50.644;6.184;2022-08-01T13:09:17;6.00;;;5.50;;
15899;SDS011;8048;50.644;6.184;2022-08-01T13:11:43;7.37;;;6.60;;
15899;SDS011;8048;50.644;6.184;2022-08-01T13:14:10;6.57;;;5.97;;
15899;SDS011;8048;50.644;6.184;2022-08-01T13:16:51;5.23;;;4.73;;
15899;SDS011;8048;50.644;6.184;2022-08-01T13:19:17;6.43;;;5.47;;
15899;SDS011;8048;50.644;6.184;2022-08-01T13:21:56;7.50;;;5.67;;
15899;SDS011;8048;50.644;6.184;2022-08-01T13:24:27;7.30;;;6.60;;
15899;SDS011;8048;50.644;6.184;2022-08-01T13:29:37;6.90;;;6.30;;
15899;SDS011;8048;50.644;6.184;2022-08-01T13:32:18;5.90;;;5.40;;
15899;SDS011;8048;50.644;6.184;2022-08-01T13:34:44;6.80;;;6.13;;
15899;SDS011;8048;50.644;6.184;2022-08-01T13:37:10;7.33;;;6.63;;
15899;SDS011;8048;50.644;6.184;2022-08-01T13:39:35;6.67;;;5.70;;
15899;SDS011;8048;50.644;6.184;2022-08-01T13:42:13;7.80;;;7.10;;
15899;SDS011;8048;50.644;6.184;2022-08-01T13:44:40;6.97;;;6.40;;
15899;SDS011;8048;50.644;6.184;2022-08-01T13:47:06;6.33;;;5.83;;
15899;SDS011;8048;50.644;6.184;2022-08-01T13:49:33;8.00;;;5.30;;
15899;SDS011;8048;50.644;6.184;2022-08-01T13:51:59;6.37;;;5.77;;
15899;SDS011;8048;50.644;6.184;2022-08-01T13:54:25;5.47;;;5.07;;
15899;SDS011;8048;50.644;6.184;2022-08-01T13:56:52;5.33;;;4.87;;
15899;SDS011;8048;50.644;6.184;2022-08-01T13:59:18;6.23;;;5.60;;
15899;SDS011;8048;50.644;6.184;2022-08-01T14:01:44;6.20;;;5.70;;
15899;SDS011;8048;50.644;6.184;2022-08-01T14:04:09;5.77;;;5.27;;
15899;SDS011;8048;50.644;6.184;2022-08-01T14:06:35;7.17;;;6.50;;
15899;SDS011;8048;50.644;6.184;2022-08-01T14:09:02;4.70;;;4.40;;
15899;SDS011;8048;50.644;6.184;2022-08-01T14:11:28;5.00;;;4.60;;
15899;SDS011;8048;50.644;6.184;2022-08-01T14:13:53;4.93;;;4.53;;
15899;SDS011;8048;50.644;6.184;2022-08-01T14:16:19;5.67;;;5.27;;
15899;SDS011;8048;50.644;6.184;2022-08-01T14:18:44;4.87;;;4.47;;
15899;SDS011;8048;50.644;6.184;2022-08-01T14:21:10;5.23;;;4.83;;
15899;SDS011;8048;50.644;6.184;2022-08-01T14:23:36;5.20;;;4.90;;
15899;SDS011;8048;50.644;6.184;2022-08-01T14:26:03;4.77;;;4.17;;
15899;SDS011;8048;50.644;6.184;2022-08-01T14:28:28;4.73;;;4.43;;
15899;SDS011;8048;50.644;6.184;2022-08-01T14:30:55;4.93;;;4.53;;
15899;SDS011;8048;50.644;6.184;2022-08-01T14:33:22;3.97;;;3.77;;
15899;SDS011;8048;50.644;6.184;2022-08-01T14:35:48;5.27;;;4.87;;
15899;SDS011;8048;50.644;6.184;2022-08-01T14:38:13;5.23;;;4.73;;
15899;SDS011;8048;50.644;6.184;2022-08-01T14:40:39;3.90;;;3.60;;
15899;SDS011;8048;50.644;6.184;2022-08-01T14:43:05;4.80;;;4.50;;
15899;SDS011;8048;50.644;6.184;2022-08-01T14:45:31;4.40;;;4.10;;
15899;SDS011;8048;50.644;6.184;2022-08-01T14:47:57;5.30;;;5.00;;
15899;SDS011;8048;50.644;6.184;2022-08-01T14:50:24;5.10;;;4.70;;
15899;SDS011;8048;50.644;6.184;2022-08-01T14:52:52;4.37;;;4.17;;
15899;SDS011;8048;50.644;6.184;2022-08-01T14:55:17;4.30;;;4.00;;
15899;SDS011;8048;50.644;6.184;2022-08-01T14:57:46;4.13;;;3.60;;
15899;SDS011;8048;50.644;6.184;2022-08-01T15:00:12;4.17;;;3.87;;
15899;SDS011;8048;50.644;6.184;2022-08-01T15:02:38;4.63;;;4.33;;
15899;SDS011;8048;50.644;6.184;2022-08-01T15:05:04;4.83;;;4.43;;
15899;SDS011;8048;50.644;6.184;2022-08-01T15:07:30;4.33;;;4.03;;
15899;SDS011;8048;50.644;6.184;2022-08-01T15:09:56;4.53;;;4.27;;
15899;SDS011;8048;50.644;6.184;2022-08-01T15:12:21;3.97;;;3.70;;
15899;SDS011;8048;50.644;6.184;2022-08-01T15:14:47;4.93;;;4.63;;
15899;SDS011;8048;50.644;6.184;2022-08-01T15:17:13;5.43;;;5.03;;
15899;SDS011;8048;50.644;6.184;2022-08-01T15:19:39;4.20;;;3.90;;
15899;SDS011;8048;50.644;6.184;2022-08-01T15:22:04;4.33;;;4.00;;
15899;SDS011;8048;50.644;6.184;2022-08-01T15:24:30;4.40;;;4.10;;
15899;SDS011;8048;50.644;6.184;2022-08-01T15:26:56;3.80;;;3.50;;
15899;SDS011;8048;50.644;6.184;2022-08-01T15:29:22;4.40;;;4.10;;
15899;SDS011;8048;50.644;6.184;2022-08-01T15:31:47;3.70;;;3.50;;
15899;SDS011;8048;50.644;6.184;2022-08-01T15:34:13;3.60;;;3.30;;
15899;SDS011;8048;50.644;6.184;2022-08-01T15:36:39;3.93;;;3.73;;
15899;SDS011;8048;50.644;6.184;2022-08-01T15:39:04;3.53;;;3.33;;
15899;SDS011;8048;50.644;6.184;2022-08-01T15:41:30;3.60;;;3.40;;